SKBO/BOG METAR and TAF weather

Enter ICAO airport designator
Station Type Date Time Source
SKBO METAR 2018/12/15 23:00 UTC NOAA

SKBO 152300Z 12008KT 080V140 9999 FEW030 16/04 A3033


Station Type Date Time Source
SKBO Decoded METAR 2018/12/15 23:00 UTC NOAA

Bogota / Eldorado, Colombia (SKBO) 04-43N 074-09W 2548M
Dec 15, 2018 - 06:00 PM EST / 2018.12.15 2300 UTC
Wind: from the ESE (120 degrees) at 9 MPH (8 KT) (direction variable):0
Visibility: greater than 7 mile(s):0
Sky conditions: mostly clear
Temperature: 60 F (16 C)
Dew Point: 39 F (4 C)
Relative Humidity: 44%
Pressure (altimeter): 30.33 in. Hg (1027 hPa)
ob: SKBO 152300Z 12008KT 080V140 9999 FEW030 16/04 A3033
cycle: 23

Station Type Date Time Source
SKBO TAF 2018/12/15 18:53 UTC NOAA

TAF SKBO 151700Z 1518/1618 32012KT 9999 SCT023
BECMG 1600/1602 VRB02KT FEW020
TEMPO 1611/1613 0500 FG VV///
BECMG 1614/1616 32012KT TX22/1518Z TN04/1611Z


Example: see airport list